Aérodrome :
LOGIN :

S'inscrire | Disclaimer

   EN    FR    IT 

 










Légende :    VFR   VFR Marginal   IFR   IFR Intensif   IFR Très Intensif
Visi : 
Plafond : 
>= 8 km
>= 3000ft
5 à 8 km
1000 à 3000 ft
1500m à 5 km
500 à 1000 ft
800 à 1500m
200 à 500 ft
< 800m
< 200 ft
Symboles :   Orages  Brouillard  Fortes neiges  Fortes précipitations  Vent > 20 kt
SIGMETs :   Divers  Orages  Givrage  Turbulence  Onde Orograph.  Cendres Volcan.






- Altitude de l'aérodrome : 290 ft
- Code IATA : OSI


LDOS - Osijek

DERNIER METAR :
  • 210300Z VRB02KT 1500 BR SCT007 OVC010 00/00 Q1046 R11/19//94

METARs EXPIRÉS :
  • 210240Z 21005KT 1500 BR SCT007 OVC010 00/00 Q1046 R11/19//94
  • 210200Z 21005KT 1500 BR SCT007 OVC010 00/M00 Q1046 R11/19//94
  • 210130Z 22003KT 1500 BR SCT007 OVC010 00/00 Q1047 R11/19//94
  • 210100Z 22005KT 1500 BR SCT007 OVC010 00/00 Q1047 R11/19//94
  • 210030Z 25005KT 1500 BR OVC010 00/00 Q1047 R11/19//94

TAF TAF LDOS
Valide du 21 à 00h jusqu'au 22 à 00h UTC


202325Z 2100/2200 25005KT 4000 BR SCT015 BKN030 TX02/2114Z TNM04/2123Z
PROB40 2100/2110 1200 FZDZ BR BKN004 OVC012
PROB30
TEMPO 2100/2107 0600 FZFG VV002
BECMG 2110/2112 6000 NSW
PROB40
TEMPO 2110/2120 BKN010
BECMG 2120/2122 2000 BR BKN010
PROB30 2122/2200 0300 FZFG VV002



MET'MAP, la Météo Aéronautique d'un coup d'oeil ! - Copyright ORBIFLY Décembre 2007 - Disclaimer

ORBIFLY MET'MAP TEAM :

Programmation & Développement : Alexandra Zaïnal
Sur une idée originale de : Baudouin d'Aumeries
Assistance à la programmation : Marc-Olivier Méhu
Soutien technique & logistique : Manuel Goepfert

Contact : metmap@orbifly.com




SOURCES & CREDITS :

   NOAA